Time;durP1;ratioP1;P1;durP2;ratioP2;P2;SDS_P1;SDS_P2;PMS_P1;PMS_P2;Temp;Humidity;BMP_temperature;BMP_pressure;BME280_temperature;BME280_humidity;BME280_pressure;Samples;Min_cycle;Max_cycle;Signal;HPM_P1;HPM_P2
2022/02/05 00:00:24;;;;;;;9.27;3.80;;;5.40;92.70;;;;;;4994591;28;20636;-87
2022/02/05 00:03:07;;;;;;;7.87;3.07;;;5.30;93.50;;;;;;4977632;28;20171;-88
2022/02/05 00:05:59;;;;;;;8.37;4.40;;;5.40;93.40;;;;;;4993950;28;20187;-86
2022/02/05 00:40:28;;;;;;;13.27;3.50;;;4.90;94.60;;;;;;4987373;28;20167;-89
2022/02/05 00:42:54;;;;;;;8.20;3.17;;;4.80;94.60;;;;;;5016798;28;20163;-90
2022/02/05 00:45:40;;;;;;;11.57;4.07;;;4.70;95.70;;;;;;5017369;28;20175;-87
2022/02/05 00:48:10;;;;;;;9.90;3.50;;;4.70;95.80;;;;;;5016837;28;20247;-89
2022/02/05 00:50:42;;;;;;;9.37;3.37;;;5.00;94.90;;;;;;5013652;28;20170;-88
2022/02/05 00:55:53;;;;;;;7.37;3.30;;;4.90;93.80;;;;;;4994869;28;20195;-88
2022/02/05 00:58:20;;;;;;;8.00;3.33;;;4.90;94.30;;;;;;5003361;28;20187;-88
2022/02/05 01:00:49;;;;;;;8.47;3.47;;;4.80;94.10;;;;;;5015274;28;20164;-87
2022/02/05 01:03:18;;;;;;;9.73;3.90;;;4.90;94.30;;;;;;5016228;28;20179;-87
2022/02/05 01:05:45;;;;;;;9.40;3.47;;;5.00;93.40;;;;;;4997969;28;20179;-88
2022/02/05 01:08:11;;;;;;;10.97;3.43;;;5.00;92.70;;;;;;5015622;28;20178;-86
2022/02/05 01:10:37;;;;;;;9.90;3.40;;;5.00;92.60;;;;;;5013660;28;20184;-88
2022/02/05 01:13:08;;;;;;;7.63;3.53;;;5.00;92.30;;;;;;5001862;28;20191;-88
2022/02/05 01:15:49;;;;;;;7.37;3.80;;;5.00;92.50;;;;;;4983778;28;20179;-90
2022/02/05 01:18:23;;;;;;;8.90;3.70;;;4.90;92.50;;;;;;4999699;28;20195;-89
2022/02/05 01:23:51;;;;;;;7.27;3.27;;;4.90;93.10;;;;;;4993228;28;20179;-87
2022/02/05 01:26:49;;;;;;;7.37;3.30;;;4.80;92.90;;;;;;5001478;28;20209;-89
2022/02/05 01:29:44;;;;;;;9.53;3.40;;;4.80;93.10;;;;;;4983593;28;20640;-89
2022/02/05 01:32:06;;;;;;;7.87;3.60;;;4.90;92.80;;;;;;4983058;28;20172;-88
2022/02/05 01:34:45;;;;;;;10.13;3.53;;;4.90;92.70;;;;;;4999057;28;20208;-87
2022/02/05 01:50:55;;;;;;;6.47;3.17;;;4.60;93.80;;;;;;4990729;28;20183;-86
2022/02/05 02:14:56;;;;;;;8.13;3.50;;;4.80;92.80;;;;;;4997434;28;20191;-87
2022/02/05 02:22:38;;;;;;;9.07;4.03;;;4.70;93.00;;;;;;4998143;28;20176;-87
2022/02/05 02:28:18;;;;;;;9.80;3.63;;;4.70;93.00;;;;;;4961392;28;20175;-88
2022/02/05 02:30:54;;;;;;;9.30;2.97;;;4.80;93.30;;;;;;4998396;28;20167;-88
2022/02/05 02:33:34;;;;;;;8.90;3.03;;;4.90;92.60;;;;;;4996223;28;20275;-88
2022/02/05 02:36:02;;;;;;;9.77;3.73;;;4.90;92.30;;;;;;4998752;28;20238;-88
2022/02/05 02:38:45;;;;;;;7.23;3.13;;;4.90;92.10;;;;;;5014862;28;20160;-87
2022/02/05 02:41:24;;;;;;;8.60;3.37;;;4.90;92.40;;;;;;5015216;28;20186;-88
2022/02/05 02:43:53;;;;;;;7.40;2.83;;;4.80;92.50;;;;;;5015729;28;20164;-87
2022/02/05 02:46:22;;;;;;;6.20;2.93;;;4.80;92.20;;;;;;5005625;28;20218;-88
2022/02/05 02:48:49;;;;;;;7.53;3.60;;;4.80;92.40;;;;;;5003871;28;20186;-89
2022/02/05 02:57:25;;;;;;;10.57;3.37;;;4.80;92.40;;;;;;4987346;28;20210;-88
2022/02/05 03:00:02;;;;;;;10.23;3.67;;;4.80;92.60;;;;;;4995998;28;20654;-88
2022/02/05 03:02:28;;;;;;;8.80;3.63;;;4.80;92.80;;;;;;4998940;28;20183;-88
2022/02/05 03:04:55;;;;;;;7.23;3.03;;;4.70;92.70;;;;;;4997445;28;20198;-90
2022/02/05 03:07:26;;;;;;;10.43;3.03;;;4.80;93.10;;;;;;4985066;28;20219;-87
2022/02/05 03:09:55;;;;;;;8.07;3.17;;;4.90;92.50;;;;;;5009619;28;20182;-87
2022/02/05 03:12:21;;;;;;;9.33;3.67;;;5.00;91.90;;;;;;5013952;28;20256;-87
2022/02/05 03:14:48;;;;;;;7.93;3.17;;;5.10;91.60;;;;;;5014338;28;20218;-88
2022/02/05 03:17:22;;;;;;;7.53;3.07;;;5.10;90.90;;;;;;4998662;28;20175;-86
2022/02/05 03:19:51;;;;;;;9.53;3.50;;;5.30;90.30;;;;;;5009229;28;20286;-88
2022/02/05 03:22:18;;;;;;;6.50;2.90;;;5.20;89.80;;;;;;4994733;28;20198;-88
2022/02/05 03:24:45;;;;;;;9.20;3.83;;;5.10;90.20;;;;;;4996925;28;20203;-88
2022/02/05 03:27:15;;;;;;;9.43;3.50;;;5.20;90.90;;;;;;5009337;28;20219;-87
2022/02/05 03:29:43;;;;;;;9.17;3.40;;;5.00;91.30;;;;;;4995426;28;20176;-87
2022/02/05 03:32:17;;;;;;;6.87;2.70;;;5.00;91.20;;;;;;4993555;28;20172;-88
2022/02/05 03:34:45;;;;;;;11.23;2.93;;;5.00;91.50;;;;;;4978572;28;20239;-87
2022/02/05 03:37:13;;;;;;;8.50;3.30;;;5.00;91.70;;;;;;4993448;28;20164;-87
2022/02/05 03:39:39;;;;;;;7.33;3.13;;;4.90;91.30;;;;;;4995059;28;20527;-88
2022/02/05 03:42:06;;;;;;;13.73;3.50;;;5.00;91.90;;;;;;4992510;28;20174;-87
2022/02/05 03:44:32;;;;;;;7.90;3.10;;;4.90;91.60;;;;;;4992808;28;20222;-89
2022/02/05 03:46:58;;;;;;;11.50;3.43;;;4.80;92.20;;;;;;4994647;28;20183;-88
2022/02/05 03:49:27;;;;;;;10.23;2.97;;;4.90;92.40;;;;;;4997735;28;20243;-87
2022/02/05 03:51:54;;;;;;;6.17;2.67;;;4.70;92.60;;;;;;5000809;28;20223;-88
2022/02/05 03:54:21;;;;;;;7.77;3.00;;;4.60;93.30;;;;;;4997143;28;20212;-88
2022/02/05 03:56:48;;;;;;;10.27;3.00;;;4.60;93.70;;;;;;4998312;28;20182;-88
2022/02/05 03:59:14;;;;;;;6.17;2.70;;;4.70;93.80;;;;;;4999530;28;20184;-88
2022/02/05 04:01:40;;;;;;;8.20;3.87;;;4.70;93.10;;;;;;4998732;28;20251;-87
2022/02/05 04:04:06;;;;;;;10.40;2.80;;;4.70;92.60;;;;;;5005774;28;20187;-86
2022/02/05 04:06:33;;;;;;;9.10;3.00;;;4.60;93.30;;;;;;5001123;28;20271;-86
2022/02/05 04:09:04;;;;;;;9.63;2.97;;;4.50;94.00;;;;;;5001237;28;20179;-87
2022/02/05 04:16:44;;;;;;;10.00;2.80;;;4.30;96.00;;;;;;4987935;28;20178;-88
2022/02/05 04:19:10;;;;;;;11.37;3.30;;;4.30;96.10;;;;;;4995928;28;20199;-87
2022/02/05 04:21:37;;;;;;;11.20;3.00;;;4.20;96.50;;;;;;4998042;28;20654;-88
2022/02/05 04:24:04;;;;;;;11.27;3.27;;;4.20;96.40;;;;;;4992846;28;20153;-86
2022/02/05 04:26:30;;;;;;;7.83;3.30;;;3.90;96.80;;;;;;5001303;28;20653;-87
2022/02/05 04:28:56;;;;;;;11.33;3.30;;;4.10;97.30;;;;;;4997817;28;20176;-88
2022/02/05 04:31:22;;;;;;;8.63;3.40;;;4.20;97.30;;;;;;5004610;28;20235;-87
2022/02/05 04:33:50;;;;;;;7.20;2.80;;;4.40;97.40;;;;;;4995702;28;20204;-88
2022/02/05 04:36:18;;;;;;;9.90;2.83;;;4.10;97.50;;;;;;4996793;28;20557;-88
2022/02/05 04:38:47;;;;;;;11.23;3.10;;;4.20;97.60;;;;;;4996189;28;20266;-87
2022/02/05 04:41:25;;;;;;;9.17;3.40;;;4.10;97.50;;;;;;4996639;28;20663;-88
2022/02/05 05:02:24;;;;;;;8.37;3.00;;;4.30;97.30;;;;;;4982692;28;20163;-88
2022/02/05 05:04:56;;;;;;;10.40;3.50;;;4.30;97.60;;;;;;4996754;28;20175;-87
2022/02/05 05:15:11;;;;;;;9.07;2.63;;;4.20;97.70;;;;;;4983830;28;20168;-88
2022/02/05 05:20:34;;;;;;;16.40;3.40;;;4.10;98.80;;;;;;5000388;28;20155;-87
2022/02/05 05:23:00;;;;;;;11.00;3.40;;;4.00;98.90;;;;;;5010918;28;20187;-88
2022/02/05 05:25:25;;;;;;;13.57;3.07;;;4.20;99.10;;;;;;5008785;28;20180;-89
2022/02/05 05:27:51;;;;;;;13.43;3.50;;;4.20;98.30;;;;;;5004175;28;20176;-88
2022/02/05 05:30:18;;;;;;;12.87;3.37;;;4.20;98.50;;;;;;5004045;28;20222;-87
2022/02/05 05:32:44;;;;;;;11.80;3.53;;;4.10;98.70;;;;;;5005583;28;20184;-88
2022/02/05 05:35:11;;;;;;;8.03;2.93;;;4.10;98.70;;;;;;4989925;28;20203;-88
2022/02/05 05:37:37;;;;;;;10.57;3.67;;;4.20;98.70;;;;;;5001920;28;20180;-87
2022/02/05 05:40:07;;;;;;;12.87;3.60;;;4.20;98.60;;;;;;4994527;28;20283;-87
2022/02/05 05:42:39;;;;;;;10.33;3.73;;;4.30;98.50;;;;;;4995412;28;20190;-88
2022/02/05 05:47:56;;;;;;;9.47;2.80;;;4.40;97.90;;;;;;4981246;28;20163;-88
2022/02/05 05:53:13;;;;;;;11.63;3.30;;;4.40;97.50;;;;;;4993872;28;20183;-86
2022/02/05 05:55:48;;;;;;;11.13;4.33;;;4.30;97.60;;;;;;4997031;28;20295;-87
2022/02/05 05:58:18;;;;;;;10.70;3.40;;;4.40;97.70;;;;;;4998510;28;20266;-89
2022/02/05 06:00:44;;;;;;;13.30;4.03;;;4.40;97.90;;;;;;4999691;28;20175;-87
2022/02/05 06:03:10;;;;;;;14.27;4.23;;;4.40;98.20;;;;;;4999411;28;20184;-86
2022/02/05 06:05:36;;;;;;;12.77;3.70;;;4.40;98.00;;;;;;4999718;28;20277;-87
2022/02/05 06:08:05;;;;;;;15.53;3.67;;;4.30;97.60;;;;;;5001360;28;20179;-86
2022/02/05 06:10:31;;;;;;;13.70;4.03;;;4.30;97.90;;;;;;5001638;28;20207;-89
2022/02/05 06:12:57;;;;;;;13.17;3.77;;;4.20;98.50;;;;;;5015169;28;20227;-87
2022/02/05 06:15:24;;;;;;;10.80;3.83;;;4.30;98.50;;;;;;5013139;28;20203;-88
2022/02/05 06:17:51;;;;;;;12.47;3.80;;;4.20;98.50;;;;;;5015729;28;20159;-85
2022/02/05 06:20:29;;;;;;;12.23;3.77;;;4.30;98.10;;;;;;5006385;28;20190;-88
2022/02/05 06:23:04;;;;;;;13.17;4.00;;;4.20;97.90;;;;;;5002313;28;20270;-87
2022/02/05 06:25:51;;;;;;;8.30;4.03;;;4.20;98.70;;;;;;4995860;28;20619;-88
2022/02/05 06:28:27;;;;;;;12.37;3.67;;;4.20;98.60;;;;;;4997178;28;20179;-87
2022/02/05 06:30:56;;;;;;;14.77;4.37;;;4.30;98.80;;;;;;4998115;28;20226;-87
2022/02/05 06:33:22;;;;;;;12.87;3.60;;;4.20;98.80;;;;;;4996854;28;20187;-87
2022/02/05 06:36:04;;;;;;;11.97;3.50;;;4.30;98.90;;;;;;5007489;28;20222;-87
2022/02/05 06:38:32;;;;;;;14.07;3.80;;;4.20;98.90;;;;;;5010138;28;20540;-87
2022/02/05 06:40:59;;;;;;;14.50;4.10;;;4.20;99.10;;;;;;4999933;28;20206;-87
2022/02/05 06:43:24;;;;;;;13.43;3.77;;;4.20;99.20;;;;;;5008520;28;20177;-88
2022/02/05 06:45:50;;;;;;;8.27;3.13;;;4.20;99.20;;;;;;4997275;28;20548;-88
2022/02/05 06:48:15;;;;;;;12.93;3.80;;;4.00;99.40;;;;;;4979392;28;20176;-87
2022/02/05 06:50:41;;;;;;;8.30;3.37;;;4.10;99.90;;;;;;4993461;28;20207;-89
2022/02/05 06:53:07;;;;;;;8.27;3.57;;;4.10;99.90;;;;;;4993151;28;20191;-88
2022/02/05 06:55:33;;;;;;;11.43;3.27;;;4.10;99.90;;;;;;4996244;28;20219;-89
2022/02/05 06:57:58;;;;;;;10.97;3.70;;;4.20;99.90;;;;;;4994191;28;20183;-91
2022/02/05 07:00:24;;;;;;;13.50;4.23;;;4.10;99.90;;;;;;4994338;28;20195;-89
2022/02/05 07:02:51;;;;;;;11.50;3.53;;;4.10;99.90;;;;;;4995566;28;20183;-88
2022/02/05 07:05:16;;;;;;;15.00;4.03;;;3.90;99.90;;;;;;4994270;28;20191;-87
2022/02/05 07:07:42;;;;;;;13.13;3.87;;;3.80;99.90;;;;;;4995753;28;20329;-90
2022/02/05 07:10:09;;;;;;;12.83;3.40;;;3.80;99.90;;;;;;4994540;28;20659;-89
2022/02/05 07:12:45;;;;;;;11.93;4.33;;;3.80;99.90;;;;;;4994064;28;20179;-87
2022/02/05 07:15:20;;;;;;;13.93;3.37;;;3.80;99.90;;;;;;4994459;28;20198;-88
2022/02/05 07:18:01;;;;;;;17.40;3.63;;;3.70;99.90;;;;;;4995791;28;20199;-89
2022/02/05 07:31:21;;;;;;;9.37;4.20;;;3.60;99.90;;;;;;4999412;28;20196;-89
2022/02/05 07:33:53;;;;;;;15.97;4.93;;;3.60;99.90;;;;;;5003903;28;20237;-88
2022/02/05 07:36:39;;;;;;;12.67;4.10;;;3.60;99.90;;;;;;5001102;28;20253;-89
2022/02/05 07:39:09;;;;;;;16.43;4.60;;;3.70;99.90;;;;;;4999046;28;20175;-89
2022/02/05 07:41:36;;;;;;;17.77;4.47;;;3.70;99.90;;;;;;5000169;28;20237;-89
2022/02/05 07:44:06;;;;;;;10.07;4.03;;;3.80;99.90;;;;;;4998289;28;20629;-90
2022/02/05 07:46:34;;;;;;;13.30;5.03;;;3.80;99.90;;;;;;4998831;28;20186;-87
2022/02/05 07:49:00;;;;;;;10.70;4.50;;;3.80;99.90;;;;;;5002711;28;20575;-88
2022/02/05 07:51:31;;;;;;;15.90;4.10;;;3.80;99.90;;;;;;5000852;28;20182;-87
2022/02/05 07:53:59;;;;;;;10.93;4.50;;;3.90;99.90;;;;;;5003728;28;20206;-88
2022/02/05 07:56:30;;;;;;;13.20;3.77;;;3.90;99.90;;;;;;4992838;28;20223;-90
2022/02/05 07:58:56;;;;;;;10.77;3.60;;;3.90;99.90;;;;;;5000158;28;20270;-89
2022/02/05 08:01:23;;;;;;;14.97;4.53;;;3.90;99.90;;;;;;5001692;28;20199;-88
2022/02/05 08:03:49;;;;;;;11.20;3.70;;;3.90;99.90;;;;;;4999072;28;20188;-88
2022/02/05 08:06:16;;;;;;;13.97;4.33;;;4.00;99.90;;;;;;4999589;28;20198;-90
2022/02/05 08:08:47;;;;;;;10.83;3.93;;;4.00;99.90;;;;;;5003587;28;20230;-89
2022/02/05 08:11:19;;;;;;;11.90;3.53;;;4.00;99.90;;;;;;5000300;28;20231;-90
2022/02/05 08:13:49;;;;;;;12.17;4.40;;;4.10;99.90;;;;;;5001137;28;20591;-88
2022/02/05 08:16:45;;;;;;;13.33;4.73;;;4.40;99.90;;;;;;5002156;28;20180;-89
2022/02/05 08:19:11;;;;;;;14.40;4.47;;;4.30;99.90;;;;;;4996947;28;20211;-89
2022/02/05 08:21:41;;;;;;;13.03;3.80;;;4.40;99.90;;;;;;5004691;28;20191;-91
2022/02/05 08:24:09;;;;;;;9.80;3.93;;;4.50;99.90;;;;;;5003464;28;20736;-89
2022/02/05 08:26:35;;;;;;;13.53;4.63;;;4.60;99.90;;;;;;5000540;28;20175;-89
2022/02/05 08:29:02;;;;;;;14.37;4.17;;;4.50;99.90;;;;;;5004841;28;20183;-90
2022/02/05 08:32:26;;;;;;;;;;;;;;;;;;;;;
2022/02/05 08:34:52;;;;;;;11.00;4.13;;;4.60;99.90;;;;;;4994287;28;20246;-89
2022/02/05 08:37:18;;;;;;;10.60;3.63;;;4.60;99.90;;;;;;5006259;28;20164;-88
2022/02/05 08:39:45;;;;;;;10.03;3.50;;;4.60;99.90;;;;;;4994115;28;20178;-88
2022/02/05 08:42:17;;;;;;;11.03;3.57;;;4.70;99.90;;;;;;5010858;28;20170;-90
2022/02/05 08:44:54;;;;;;;12.73;3.60;;;4.60;99.90;;;;;;5010830;28;20276;-88
2022/02/05 08:47:20;;;;;;;9.93;3.60;;;4.40;99.90;;;;;;5005490;28;20238;-91
2022/02/05 08:49:48;;;;;;;9.83;3.73;;;4.70;99.90;;;;;;5009002;28;20184;-91
2022/02/05 08:52:15;;;;;;;11.67;4.40;;;4.60;99.90;;;;;;5004006;28;20176;-89
2022/02/05 08:54:41;;;;;;;13.97;4.50;;;4.50;99.90;;;;;;5005198;28;20199;-90
2022/02/05 08:57:15;;;;;;;11.73;3.97;;;4.80;99.90;;;;;;5003626;28;20195;-91
2022/02/05 09:00:05;;;;;;;14.00;4.40;;;5.00;99.80;;;;;;5001819;28;20263;-89
2022/02/05 09:03:24;;;;;;;11.17;3.80;;;5.10;98.80;;;;;;5002106;28;20172;-88
2022/02/05 09:05:39;;;;;;;12.27;3.80;;;5.00;98.50;;;;;;4983497;28;20238;-89
2022/02/05 09:08:40;;;;;;;8.77;3.80;;;5.00;98.70;;;;;;4996019;28;20175;-89
2022/02/05 09:11:34;;;;;;;12.00;3.57;;;5.30;98.50;;;;;;5012639;28;20682;-88
2022/02/05 09:14:14;;;;;;;11.17;4.70;;;5.30;97.60;;;;;;5011817;28;20184;-91
2022/02/05 09:16:50;;;;;;;11.63;3.27;;;5.40;97.50;;;;;;4998744;28;20170;-88
2022/02/05 09:19:21;;;;;;;11.50;3.50;;;5.40;97.10;;;;;;5013798;28;20187;-89
2022/02/05 09:21:51;;;;;;;12.57;3.43;;;5.40;97.00;;;;;;4998848;28;20231;-88
2022/02/05 09:24:42;;;;;;;10.10;3.00;;;5.50;97.00;;;;;;5012452;28;20172;-88
2022/02/05 09:30:12;;;;;;;10.90;3.33;;;5.70;95.90;;;;;;5037703;28;20217;-88
2022/02/05 09:32:51;;;;;;;10.90;4.20;;;5.80;95.50;;;;;;5039165;28;20174;-89
2022/02/05 09:35:24;;;;;;;7.53;3.00;;;5.90;93.50;;;;;;5037510;28;20201;-87
2022/02/05 09:40:40;;;;;;;7.47;2.87;;;6.00;93.10;;;;;;5289694;22;20248;-88
2022/02/05 09:43:06;;;;;;;8.90;3.13;;;5.90;93.00;;;;;;5016660;28;20174;-87
2022/02/05 09:45:40;;;;;;;11.63;3.10;;;6.30;93.20;;;;;;5035464;28;20171;-90
2022/02/05 09:48:08;;;;;;;9.80;3.33;;;5.90;93.00;;;;;;5013272;28;20178;-90
2022/02/05 09:50:36;;;;;;;9.00;3.23;;;6.00;92.60;;;;;;4999647;28;20201;-92
2022/02/05 09:53:13;;;;;;;10.23;3.23;;;6.20;92.50;;;;;;5020479;28;20222;-91
2022/02/05 09:55:43;;;;;;;10.43;3.80;;;6.10;91.80;;;;;;5021429;28;20197;-92
2022/02/05 09:58:21;;;;;;;10.33;3.27;;;6.20;91.50;;;;;;5038991;28;20165;-91
2022/02/05 10:01:30;;;;;;;11.07;3.30;;;6.10;91.70;;;;;;5021820;28;20205;-90
2022/02/05 10:04:14;;;;;;;9.17;3.17;;;6.20;91.60;;;;;;5021730;28;20201;-90
2022/02/05 10:06:50;;;;;;;10.70;3.10;;;6.40;92.10;;;;;;5042078;23;20210;-91
2022/02/05 10:09:46;;;;;;;10.73;3.10;;;6.50;91.30;;;;;;5037249;28;20170;-91
2022/02/05 10:30:31;;;;;;;10.07;2.83;;;7.10;80.10;;;;;;5050512;28;20204;-92
2022/02/05 10:33:32;;;;;;;14.40;3.00;;;7.20;78.20;;;;;;5020854;28;20197;-91
2022/02/05 10:36:27;;;;;;;9.40;2.90;;;7.30;72.80;;;;;;5034211;28;20197;-95
2022/02/05 10:39:28;;;;;;;8.43;3.23;;;7.30;72.60;;;;;;5050605;28;20544;-90
2022/02/05 10:45:51;;;;;;;7.70;2.83;;;7.10;72.70;;;;;;5054510;28;20201;-92
2022/02/05 10:48:44;;;;;;;9.77;2.63;;;7.10;73.00;;;;;;5055514;28;20189;-90
2022/02/05 10:51:13;;;;;;;9.60;2.80;;;7.30;74.30;;;;;;5019167;28;20173;-90
2022/02/05 10:56:31;;;;;;;10.07;3.40;;;7.40;73.60;;;;;;5351236;22;20238;-90
2022/02/05 11:07:21;;;;;;;11.00;3.57;;;7.70;61.10;;;;;;5016187;28;20194;-91
2022/02/05 11:10:06;;;;;;;11.53;3.77;;;7.70;67.20;;;;;;4995990;28;20243;-90
2022/02/05 11:12:48;;;;;;;8.47;3.33;;;7.80;66.50;;;;;;4995673;28;20193;-91
2022/02/05 11:18:31;;;;;;;9.33;3.60;;;7.80;67.30;;;;;;4934339;29;20210;-91
2022/02/05 11:21:07;;;;;;;11.90;3.40;;;7.80;67.50;;;;;;5003043;28;20178;-88
2022/02/05 11:23:38;;;;;;;7.50;3.03;;;7.90;65.80;;;;;;5018756;28;20181;-91
2022/02/05 11:26:27;;;;;;;8.97;3.70;;;7.90;63.10;;;;;;5009317;28;20178;-90
2022/02/05 11:29:27;;;;;;;9.60;3.50;;;8.00;63.20;;;;;;5017298;28;20186;-88
2022/02/05 11:32:32;;;;;;;15.23;4.03;;;8.10;62.40;;;;;;4978393;28;20167;-89
2022/02/05 11:35:12;;;;;;;9.80;3.27;;;8.20;61.20;;;;;;4934371;29;20210;-90
2022/02/05 11:38:19;;;;;;;6.40;1.87;;;8.40;53.80;;;;;;4935854;29;20202;-91
2022/02/05 11:41:10;;;;;;;11.73;2.60;;;8.20;48.60;;;;;;5026524;23;20286;-89
2022/02/05 11:44:10;;;;;;;8.07;3.10;;;8.10;48.40;;;;;;5035592;28;20158;-91
2022/02/05 11:47:10;;;;;;;9.47;3.17;;;8.20;47.70;;;;;;5018793;28;20185;-92
2022/02/05 11:49:56;;;;;;;7.93;3.03;;;8.40;49.30;;;;;;5028034;28;20274;-91
2022/02/05 11:53:01;;;;;;;10.40;3.30;;;8.40;44.60;;;;;;5043381;22;20241;-92
2022/02/05 11:55:44;;;;;;;9.50;2.93;;;8.40;46.90;;;;;;5002723;28;20206;-92
2022/02/05 12:01:10;;;;;;;11.83;3.37;;;8.40;44.80;;;;;;5034049;28;20220;-90
2022/02/05 12:03:41;;;;;;;6.47;2.80;;;8.50;42.30;;;;;;5030971;28;20174;-89
2022/02/05 12:06:30;;;;;;;10.67;3.47;;;8.50;39.30;;;;;;5018420;28;20171;-92
2022/02/05 12:12:27;;;;;;;10.63;3.50;;;8.40;46.00;;;;;;5053895;22;20233;-92
2022/02/05 12:15:16;;;;;;;12.90;3.87;;;8.50;45.20;;;;;;5039581;28;20213;-87
2022/02/05 12:18:15;;;;;;;9.93;3.33;;;8.50;46.90;;;;;;5023931;28;20182;-91
2022/02/05 12:21:15;;;;;;;11.03;3.07;;;8.70;45.00;;;;;;5030302;22;20217;-88
2022/02/05 12:43:12;;;;;;;8.23;2.27;;;8.80;36.90;;;;;;5134109;22;20218;-90
2022/02/05 12:45:53;;;;;;;11.23;3.03;;;8.80;38.40;;;;;;5188398;22;20299;-92
2022/02/05 12:48:28;;;;;;;8.30;2.40;;;8.80;38.20;;;;;;5032687;28;20178;-87
2022/02/05 12:51:12;;;;;;;7.50;2.00;;;9.10;34.90;;;;;;5014672;28;20175;-90
2022/02/05 12:53:49;;;;;;;9.77;2.80;;;9.10;26.90;;;;;;5032473;28;20212;-91
2022/02/05 12:56:18;;;;;;;7.93;2.40;;;9.20;22.20;;;;;;5009712;28;20210;-88
2022/02/05 12:59:24;;;;;;;6.43;2.27;;;9.20;20.00;;;;;;5032389;28;20166;-90
2022/02/05 13:01:55;;;;;;;10.60;2.53;;;9.30;16.10;;;;;;5034019;28;20197;-89
2022/02/05 13:04:26;;;;;;;8.60;2.17;;;9.20;16.60;;;;;;5017052;28;20178;-91
2022/02/05 13:07:18;;;;;;;8.73;1.90;;;9.30;9.00;;;;;;5028990;28;20198;-92
2022/02/05 13:10:07;;;;;;;8.10;2.17;;;9.20;7.00;;;;;;5013665;28;20178;-93
2022/02/05 13:12:46;;;;;;;5.77;1.80;;;9.30;8.20;;;;;;5009028;28;20174;-89
2022/02/05 13:15:31;;;;;;;9.73;2.50;;;9.50;1.00;;;;;;4990113;28;20226;-89
2022/02/05 13:34:32;;;;;;;6.00;2.00;;;9.50;1.00;;;;;;5029952;28;20209;-90
2022/02/05 13:39:57;;;;;;;5.73;1.90;;;9.60;1.00;;;;;;5035852;28;20174;-88
2022/02/05 13:42:31;;;;;;;7.07;2.53;;;9.40;1.00;;;;;;5011804;28;20205;-88
2022/02/05 13:45:09;;;;;;;8.27;2.40;;;9.30;1.00;;;;;;5000107;28;20177;-89
2022/02/05 13:47:44;;;;;;;10.63;2.40;;;9.20;6.00;;;;;;5035377;28;20164;-91
2022/02/05 13:50:19;;;;;;;8.27;2.17;;;9.30;10.50;;;;;;5033682;28;20190;-89
2022/02/05 13:53:00;;;;;;;7.87;2.23;;;9.30;12.30;;;;;;5031691;28;20170;-89
2022/02/05 13:55:49;;;;;;;9.90;2.43;;;9.20;17.30;;;;;;5018270;28;20229;-88
2022/02/05 13:58:18;;;;;;;9.60;2.70;;;9.30;7.30;;;;;;5036649;28;20173;-89
2022/02/05 14:00:53;;;;;;;6.70;2.10;;;9.40;1.00;;;;;;5030786;28;20238;-89
2022/02/05 14:03:29;;;;;;;9.33;2.43;;;9.10;1.00;;;;;;5009771;28;20166;-88
2022/02/05 14:06:07;;;;;;;8.77;2.60;;;9.20;6.20;;;;;;5013290;28;20178;-87
2022/02/05 14:08:45;;;;;;;11.13;2.30;;;9.30;8.00;;;;;;5061085;22;20198;-87
2022/02/05 14:11:25;;;;;;;15.43;3.13;;;9.20;9.40;;;;;;5004390;28;20177;-88
2022/02/05 14:13:59;;;;;;;7.13;2.27;;;9.30;4.80;;;;;;5021706;28;20169;-88
2022/02/05 14:16:34;;;;;;;9.10;2.30;;;9.40;1.80;;;;;;5021813;28;20230;-89
2022/02/05 14:19:07;;;;;;;8.87;2.40;;;9.30;1.00;;;;;;5036652;28;20162;-88
2022/02/05 14:21:48;;;;;;;8.37;2.93;;;9.50;6.20;;;;;;5018165;28;20158;-89
2022/02/05 14:24:21;;;;;;;12.13;3.30;;;9.30;7.40;;;;;;4995984;28;20176;-87
2022/02/05 14:26:58;;;;;;;9.13;2.53;;;9.30;12.70;;;;;;5011008;28;20194;-88
2022/02/05 14:29:35;;;;;;;8.10;2.30;;;9.40;11.10;;;;;;5019048;28;20650;-88
2022/02/05 14:32:08;;;;;;;12.63;3.00;;;9.70;6.50;;;;;;5026769;28;20644;-89
2022/02/05 14:42:39;;;;;;;8.23;2.90;;;9.70;9.30;;;;;;5049502;28;20220;-87
2022/02/05 14:45:05;;;;;;;9.23;2.90;;;9.60;11.80;;;;;;5008605;28;20197;-87
2022/02/05 14:47:31;;;;;;;12.70;3.17;;;9.40;17.30;;;;;;5034445;28;20182;-88
2022/02/05 14:49:57;;;;;;;11.73;2.70;;;9.40;20.10;;;;;;5025603;28;20200;-87
2022/02/05 14:52:23;;;;;;;9.07;2.77;;;9.40;20.30;;;;;;5023236;28;20181;-88
2022/02/05 14:54:49;;;;;;;9.30;2.70;;;9.50;19.70;;;;;;5023530;28;20214;-87
2022/02/05 14:57:17;;;;;;;12.73;2.70;;;9.40;20.60;;;;;;5023547;28;20197;-88
2022/02/05 14:59:43;;;;;;;5.77;2.30;;;9.40;24.20;;;;;;5024260;28;20173;-89
2022/02/05 15:02:11;;;;;;;9.90;2.40;;;9.40;20.60;;;;;;5024226;28;20181;-88
2022/02/05 15:04:37;;;;;;;9.40;2.73;;;9.40;21.60;;;;;;5025284;28;20184;-88
2022/02/05 15:07:04;;;;;;;10.57;2.43;;;9.50;22.20;;;;;;5022984;28;20169;-89
2022/02/05 15:09:30;;;;;;;11.50;2.90;;;9.30;23.10;;;;;;5021800;28;20190;-90
2022/02/05 15:11:58;;;;;;;12.17;2.90;;;9.40;24.30;;;;;;5023551;28;20178;-89
2022/02/05 15:14:24;;;;;;;10.20;2.90;;;9.40;19.90;;;;;;5040217;28;20240;-87
2022/02/05 15:16:50;;;;;;;8.03;2.50;;;9.30;18.70;;;;;;5041602;28;20173;-87
2022/02/05 15:19:16;;;;;;;10.63;3.20;;;9.40;17.50;;;;;;5026251;28;20170;-87
2022/02/05 15:21:42;;;;;;;9.80;2.87;;;9.40;17.30;;;;;;5023765;28;20173;-88
2022/02/05 15:24:11;;;;;;;11.43;2.40;;;9.30;19.80;;;;;;5023537;28;20170;-89
2022/02/05 15:26:37;;;;;;;10.70;2.60;;;9.30;16.20;;;;;;5006981;28;20195;-89
2022/02/05 15:29:07;;;;;;;8.60;2.63;;;9.30;18.20;;;;;;5022582;28;20245;-89
2022/02/05 15:31:33;;;;;;;7.73;2.50;;;9.30;17.60;;;;;;5007804;28;20254;-89
2022/02/05 15:34:02;;;;;;;11.13;2.67;;;9.40;20.20;;;;;;5027955;28;20684;-87
2022/02/05 15:36:35;;;;;;;11.57;3.23;;;9.30;19.50;;;;;;5027961;28;20186;-89
2022/02/05 15:39:11;;;;;;;8.37;2.60;;;9.30;22.40;;;;;;4992659;28;20186;-90
2022/02/05 15:44:37;;;;;;;6.53;2.23;;;9.30;25.80;;;;;;5024588;28;20246;-86
2022/02/05 15:47:04;;;;;;;9.73;2.67;;;9.20;29.60;;;;;;4990803;28;20194;-89
2022/02/05 15:49:30;;;;;;;6.17;2.60;;;9.10;31.30;;;;;;5003554;28;20189;-87
2022/02/05 15:52:00;;;;;;;9.13;2.13;;;9.10;31.80;;;;;;5017851;28;20600;-87
2022/02/05 15:54:29;;;;;;;9.50;2.57;;;9.10;31.60;;;;;;5020421;28;20226;-87
2022/02/05 15:57:06;;;;;;;7.07;2.30;;;9.10;32.30;;;;;;5019422;28;20166;-89
2022/02/05 16:02:13;;;;;;;5.77;2.20;;;8.90;33.40;;;;;;5039603;28;20185;-87
2022/02/05 16:04:42;;;;;;;10.13;2.40;;;8.90;33.30;;;;;;5007010;28;20170;-85
2022/02/05 16:07:14;;;;;;;10.60;3.00;;;9.00;31.40;;;;;;5019419;28;20170;-87
2022/02/05 16:10:03;;;;;;;10.13;2.43;;;9.00;35.70;;;;;;5017738;28;20193;-88
2022/02/05 16:12:33;;;;;;;8.70;2.60;;;8.90;36.60;;;;;;5032855;28;20686;-86
2022/02/05 16:15:02;;;;;;;13.13;2.47;;;8.90;37.90;;;;;;5011695;28;20210;-89
2022/02/05 16:17:28;;;;;;;14.40;2.60;;;8.80;40.90;;;;;;5028661;28;20191;-87
2022/02/05 16:19:53;;;;;;;6.67;2.27;;;8.90;37.50;;;;;;5007622;28;20210;-87
2022/02/05 16:22:19;;;;;;;6.47;2.10;;;8.90;36.30;;;;;;5010832;28;20178;-87
2022/02/05 16:24:45;;;;;;;8.03;2.47;;;8.80;41.20;;;;;;4993785;28;20182;-89
2022/02/05 16:27:11;;;;;;;7.33;2.50;;;8.80;40.80;;;;;;5086694;23;20217;-87
2022/02/05 16:29:38;;;;;;;13.03;2.93;;;8.90;39.40;;;;;;5030042;28;20265;-86
2022/02/05 16:32:07;;;;;;;8.47;3.27;;;8.80;39.50;;;;;;5051557;28;20667;-86
2022/02/05 16:34:42;;;;;;;12.20;2.87;;;8.70;37.80;;;;;;5052655;28;20280;-87
2022/02/05 16:37:14;;;;;;;7.03;2.43;;;8.70;40.10;;;;;;5059426;28;20191;-89
2022/02/05 16:39:43;;;;;;;8.23;2.40;;;8.60;41.90;;;;;;5043941;28;20223;-90
2022/02/05 16:42:14;;;;;;;9.83;2.77;;;8.60;41.50;;;;;;5054018;28;20204;-88
2022/02/05 16:44:40;;;;;;;11.13;2.50;;;8.60;42.80;;;;;;5053448;28;20184;-89
2022/02/05 16:47:15;;;;;;;8.57;2.27;;;8.60;43.50;;;;;;5058017;28;20195;-90
2022/02/05 16:49:55;;;;;;;7.97;2.50;;;8.60;44.90;;;;;;5076265;28;20184;-89
2022/02/05 16:52:29;;;;;;;9.53;2.60;;;8.50;49.40;;;;;;5038957;28;20176;-91
2022/02/05 16:54:55;;;;;;;10.97;2.83;;;8.50;48.80;;;;;;5056356;28;20218;-89
2022/02/05 16:57:27;;;;;;;10.07;2.90;;;8.40;50.40;;;;;;5057639;28;20161;-90
2022/02/05 17:00:05;;;;;;;7.83;2.47;;;8.40;52.10;;;;;;5059368;28;20169;-91
2022/02/05 17:02:31;;;;;;;10.23;3.13;;;8.50;49.90;;;;;;5047765;28;20211;-91
2022/02/05 17:04:59;;;;;;;11.70;2.60;;;8.50;50.00;;;;;;5057095;28;20165;-90
2022/02/05 17:07:27;;;;;;;9.27;2.63;;;8.50;48.60;;;;;;5061185;28;20172;-90
2022/02/05 17:09:55;;;;;;;7.50;2.20;;;8.50;49.70;;;;;;5042529;28;20177;-89
2022/02/05 17:12:25;;;;;;;8.90;2.63;;;8.40;48.90;;;;;;5057933;28;20249;-91
2022/02/05 17:14:53;;;;;;;7.97;2.70;;;8.40;51.50;;;;;;5068382;28;20277;-91
2022/02/05 17:17:28;;;;;;;7.40;2.50;;;8.40;54.10;;;;;;5054650;28;20169;-90
2022/02/05 17:20:04;;;;;;;4.77;2.10;;;8.50;56.40;;;;;;5018098;28;20178;-87
2022/02/05 17:22:30;;;;;;;13.70;3.60;;;8.50;57.00;;;;;;5031610;28;20170;-86